sensor_id;sensor_type;location;lat;lon;timestamp;P1;durP1;ratioP1;P2;durP2;ratioP2
15159;SDS011;7680;48.800;9.680;2024-01-07T00:03:58;21.53;;;16.80;;
15159;SDS011;7680;48.800;9.680;2024-01-07T00:09:01;20.30;;;16.90;;
15159;SDS011;7680;48.800;9.680;2024-01-07T00:14:06;18.57;;;16.27;;
15159;SDS011;7680;48.800;9.680;2024-01-07T00:19:09;20.80;;;17.33;;
15159;SDS011;7680;48.800;9.680;2024-01-07T00:24:12;24.33;;;19.37;;
15159;SDS011;7680;48.800;9.680;2024-01-07T00:29:17;25.40;;;21.53;;
15159;SDS011;7680;48.800;9.680;2024-01-07T00:34:20;35.20;;;24.53;;
15159;SDS011;7680;48.800;9.680;2024-01-07T00:39:23;27.97;;;21.83;;
15159;SDS011;7680;48.800;9.680;2024-01-07T00:44:28;27.07;;;22.43;;
15159;SDS011;7680;48.800;9.680;2024-01-07T00:49:31;27.23;;;23.93;;
15159;SDS011;7680;48.800;9.680;2024-01-07T00:54:34;24.10;;;20.87;;
15159;SDS011;7680;48.800;9.680;2024-01-07T00:59:39;24.90;;;21.10;;
15159;SDS011;7680;48.800;9.680;2024-01-07T01:04:42;23.80;;;20.67;;
15159;SDS011;7680;48.800;9.680;2024-01-07T01:09:45;21.30;;;19.00;;
15159;SDS011;7680;48.800;9.680;2024-01-07T01:14:50;21.30;;;19.03;;
15159;SDS011;7680;48.800;9.680;2024-01-07T01:19:54;17.83;;;15.93;;
15159;SDS011;7680;48.800;9.680;2024-01-07T01:24:57;18.83;;;16.03;;
15159;SDS011;7680;48.800;9.680;2024-01-07T01:30:02;16.97;;;15.27;;
15159;SDS011;7680;48.800;9.680;2024-01-07T01:35:07;17.43;;;15.27;;
15159;SDS011;7680;48.800;9.680;2024-01-07T01:40:11;17.03;;;14.93;;
15159;SDS011;7680;48.800;9.680;2024-01-07T01:45:16;16.80;;;15.10;;
15159;SDS011;7680;48.800;9.680;2024-01-07T01:50:21;15.70;;;14.10;;
15159;SDS011;7680;48.800;9.680;2024-01-07T01:55:25;27.70;;;17.30;;
15159;SDS011;7680;48.800;9.680;2024-01-07T02:00:29;20.17;;;16.80;;
15159;SDS011;7680;48.800;9.680;2024-01-07T02:05:33;17.77;;;15.73;;
15159;SDS011;7680;48.800;9.680;2024-01-07T02:10:36;15.67;;;13.80;;
15159;SDS011;7680;48.800;9.680;2024-01-07T02:15:44;15.67;;;13.67;;
15159;SDS011;7680;48.800;9.680;2024-01-07T02:20:47;14.87;;;13.37;;
15159;SDS011;7680;48.800;9.680;2024-01-07T02:25:51;14.60;;;12.77;;
15159;SDS011;7680;48.800;9.680;2024-01-07T02:30:54;15.20;;;13.60;;
15159;SDS011;7680;48.800;9.680;2024-01-07T02:35:58;14.77;;;13.23;;
15159;SDS011;7680;48.800;9.680;2024-01-07T02:41:02;15.77;;;13.97;;
15159;SDS011;7680;48.800;9.680;2024-01-07T02:46:06;14.53;;;13.03;;
15159;SDS011;7680;48.800;9.680;2024-01-07T02:51:10;14.20;;;12.70;;
15159;SDS011;7680;48.800;9.680;2024-01-07T02:56:14;14.87;;;13.07;;
15159;SDS011;7680;48.800;9.680;2024-01-07T03:01:21;15.80;;;14.20;;
15159;SDS011;7680;48.800;9.680;2024-01-07T03:06:26;20.30;;;15.83;;
15159;SDS011;7680;48.800;9.680;2024-01-07T03:11:31;16.33;;;14.57;;
15159;SDS011;7680;48.800;9.680;2024-01-07T03:16:34;18.77;;;16.63;;
15159;SDS011;7680;48.800;9.680;2024-01-07T03:21:37;16.50;;;14.37;;
15159;SDS011;7680;48.800;9.680;2024-01-07T03:26:41;18.77;;;16.77;;
15159;SDS011;7680;48.800;9.680;2024-01-07T03:31:44;23.67;;;17.27;;
15159;SDS011;7680;48.800;9.680;2024-01-07T03:36:48;18.87;;;16.00;;
15159;SDS011;7680;48.800;9.680;2024-01-07T03:41:55;18.83;;;16.50;;
15159;SDS011;7680;48.800;9.680;2024-01-07T03:46:58;21.10;;;16.97;;
15159;SDS011;7680;48.800;9.680;2024-01-07T03:52:01;18.90;;;16.50;;
15159;SDS011;7680;48.800;9.680;2024-01-07T03:57:06;18.03;;;15.87;;
15159;SDS011;7680;48.800;9.680;2024-01-07T04:02:09;20.30;;;16.73;;
15159;SDS011;7680;48.800;9.680;2024-01-07T04:07:13;19.63;;;16.90;;
15159;SDS011;7680;48.800;9.680;2024-01-07T04:12:17;26.87;;;20.33;;
15159;SDS011;7680;48.800;9.680;2024-01-07T04:17:20;20.70;;;17.97;;
15159;SDS011;7680;48.800;9.680;2024-01-07T04:22:23;20.67;;;16.90;;
15159;SDS011;7680;48.800;9.680;2024-01-07T04:27:28;20.80;;;17.73;;
15159;SDS011;7680;48.800;9.680;2024-01-07T04:32:31;17.37;;;15.23;;
15159;SDS011;7680;48.800;9.680;2024-01-07T04:37:34;19.50;;;17.23;;
15159;SDS011;7680;48.800;9.680;2024-01-07T04:42:40;22.50;;;17.80;;
15159;SDS011;7680;48.800;9.680;2024-01-07T04:47:43;19.03;;;16.33;;
15159;SDS011;7680;48.800;9.680;2024-01-07T04:52:46;20.97;;;17.20;;
15159;SDS011;7680;48.800;9.680;2024-01-07T04:57:51;19.27;;;16.63;;
15159;SDS011;7680;48.800;9.680;2024-01-07T05:02:54;19.13;;;17.03;;
15159;SDS011;7680;48.800;9.680;2024-01-07T05:07:57;20.40;;;17.20;;
15159;SDS011;7680;48.800;9.680;2024-01-07T05:13:03;20.97;;;17.70;;
15159;SDS011;7680;48.800;9.680;2024-01-07T05:18:08;16.97;;;14.97;;
15159;SDS011;7680;48.800;9.680;2024-01-07T05:23:11;20.30;;;16.13;;
15159;SDS011;7680;48.800;9.680;2024-01-07T05:28:16;17.43;;;15.60;;
15159;SDS011;7680;48.800;9.680;2024-01-07T05:33:21;22.37;;;17.60;;
15159;SDS011;7680;48.800;9.680;2024-01-07T05:38:24;19.40;;;16.20;;
15159;SDS011;7680;48.800;9.680;2024-01-07T05:43:32;19.20;;;16.30;;
15159;SDS011;7680;48.800;9.680;2024-01-07T05:48:41;34.27;;;22.63;;
15159;SDS011;7680;48.800;9.680;2024-01-07T05:53:46;20.47;;;18.17;;
15159;SDS011;7680;48.800;9.680;2024-01-07T05:58:50;20.07;;;17.13;;
15159;SDS011;7680;48.800;9.680;2024-01-07T06:03:53;20.33;;;16.70;;
15159;SDS011;7680;48.800;9.680;2024-01-07T06:08:56;23.50;;;17.37;;
15159;SDS011;7680;48.800;9.680;2024-01-07T06:14:01;19.23;;;17.13;;
15159;SDS011;7680;48.800;9.680;2024-01-07T06:19:04;18.83;;;16.87;;
15159;SDS011;7680;48.800;9.680;2024-01-07T06:24:08;23.10;;;18.60;;
15159;SDS011;7680;48.800;9.680;2024-01-07T06:29:13;18.50;;;16.50;;
15159;SDS011;7680;48.800;9.680;2024-01-07T06:34:16;19.63;;;17.63;;
15159;SDS011;7680;48.800;9.680;2024-01-07T06:39:19;21.00;;;18.50;;
15159;SDS011;7680;48.800;9.680;2024-01-07T06:44:23;17.77;;;15.87;;
15159;SDS011;7680;48.800;9.680;2024-01-07T06:49:27;19.40;;;17.30;;
15159;SDS011;7680;48.800;9.680;2024-01-07T06:54:30;16.80;;;14.87;;
15159;SDS011;7680;48.800;9.680;2024-01-07T06:59:34;16.30;;;14.43;;
15159;SDS011;7680;48.800;9.680;2024-01-07T07:04:37;15.77;;;14.03;;
15159;SDS011;7680;48.800;9.680;2024-01-07T07:09:41;16.03;;;14.27;;
15159;SDS011;7680;48.800;9.680;2024-01-07T07:14:45;15.03;;;13.43;;
15159;SDS011;7680;48.800;9.680;2024-01-07T07:19:49;16.00;;;14.27;;
15159;SDS011;7680;48.800;9.680;2024-01-07T07:24:52;16.83;;;14.60;;
15159;SDS011;7680;48.800;9.680;2024-01-07T07:29:59;15.37;;;13.87;;
15159;SDS011;7680;48.800;9.680;2024-01-07T07:35:02;15.40;;;13.77;;
15159;SDS011;7680;48.800;9.680;2024-01-07T07:40:06;17.63;;;14.73;;
15159;SDS011;7680;48.800;9.680;2024-01-07T07:45:11;14.90;;;13.03;;
15159;SDS011;7680;48.800;9.680;2024-01-07T07:50:14;17.10;;;14.43;;
15159;SDS011;7680;48.800;9.680;2024-01-07T07:55:18;16.17;;;13.13;;
15159;SDS011;7680;48.800;9.680;2024-01-07T08:00:23;18.30;;;14.47;;
15159;SDS011;7680;48.800;9.680;2024-01-07T08:05:26;15.73;;;14.07;;
15159;SDS011;7680;48.800;9.680;2024-01-07T08:10:29;16.37;;;14.67;;
15159;SDS011;7680;48.800;9.680;2024-01-07T08:15:34;16.10;;;14.27;;
15159;SDS011;7680;48.800;9.680;2024-01-07T08:20:38;17.53;;;15.10;;
15159;SDS011;7680;48.800;9.680;2024-01-07T08:25:42;19.60;;;15.23;;
15159;SDS011;7680;48.800;9.680;2024-01-07T08:30:47;17.43;;;14.33;;
15159;SDS011;7680;48.800;9.680;2024-01-07T08:35:52;16.23;;;14.53;;
15159;SDS011;7680;48.800;9.680;2024-01-07T08:40:56;19.43;;;16.33;;
15159;SDS011;7680;48.800;9.680;2024-01-07T08:46:00;16.23;;;13.20;;
15159;SDS011;7680;48.800;9.680;2024-01-07T08:51:06;17.67;;;15.57;;
15159;SDS011;7680;48.800;9.680;2024-01-07T08:56:09;16.30;;;13.83;;
15159;SDS011;7680;48.800;9.680;2024-01-07T09:01:16;13.93;;;12.07;;
15159;SDS011;7680;48.800;9.680;2024-01-07T09:06:19;11.37;;;10.10;;
15159;SDS011;7680;48.800;9.680;2024-01-07T09:11:22;11.83;;;10.37;;
15159;SDS011;7680;48.800;9.680;2024-01-07T09:16:26;12.47;;;10.80;;
15159;SDS011;7680;48.800;9.680;2024-01-07T09:21:29;12.07;;;10.10;;
15159;SDS011;7680;48.800;9.680;2024-01-07T09:26:32;11.77;;;9.93;;
15159;SDS011;7680;48.800;9.680;2024-01-07T09:31:37;13.07;;;10.60;;
15159;SDS011;7680;48.800;9.680;2024-01-07T09:36:40;11.47;;;10.23;;
15159;SDS011;7680;48.800;9.680;2024-01-07T09:41:43;11.40;;;10.20;;
15159;SDS011;7680;48.800;9.680;2024-01-07T09:46:48;12.00;;;10.70;;
15159;SDS011;7680;48.800;9.680;2024-01-07T09:51:53;10.67;;;9.57;;
15159;SDS011;7680;48.800;9.680;2024-01-07T09:57:03;11.30;;;9.93;;
15159;SDS011;7680;48.800;9.680;2024-01-07T10:02:10;11.83;;;9.80;;
15159;SDS011;7680;48.800;9.680;2024-01-07T10:07:13;10.97;;;9.87;;
15159;SDS011;7680;48.800;9.680;2024-01-07T10:12:16;11.17;;;10.07;;
15159;SDS011;7680;48.800;9.680;2024-01-07T10:17:21;10.90;;;9.80;;
15159;SDS011;7680;48.800;9.680;2024-01-07T10:22:29;10.77;;;9.73;;
15159;SDS011;7680;48.800;9.680;2024-01-07T10:27:33;10.50;;;9.40;;
15159;SDS011;7680;48.800;9.680;2024-01-07T10:32:38;9.80;;;8.80;;
15159;SDS011;7680;48.800;9.680;2024-01-07T10:37:45;12.87;;;11.40;;
15159;SDS011;7680;48.800;9.680;2024-01-07T10:42:48;11.33;;;9.47;;
15159;SDS011;7680;48.800;9.680;2024-01-07T10:47:54;11.07;;;9.90;;
15159;SDS011;7680;48.800;9.680;2024-01-07T10:52:58;11.27;;;10.17;;
15159;SDS011;7680;48.800;9.680;2024-01-07T10:58:08;10.83;;;9.80;;
15159;SDS011;7680;48.800;9.680;2024-01-07T11:03:14;13.00;;;10.43;;
15159;SDS011;7680;48.800;9.680;2024-01-07T11:08:25;11.10;;;9.77;;
15159;SDS011;7680;48.800;9.680;2024-01-07T11:13:36;10.20;;;9.20;;
15159;SDS011;7680;48.800;9.680;2024-01-07T11:18:46;10.20;;;9.20;;
15159;SDS011;7680;48.800;9.680;2024-01-07T11:23:54;9.97;;;8.93;;
15159;SDS011;7680;48.800;9.680;2024-01-07T11:28:58;11.50;;;9.57;;
15159;SDS011;7680;48.800;9.680;2024-01-07T11:34:04;10.80;;;9.80;;
15159;SDS011;7680;48.800;9.680;2024-01-07T11:39:08;11.27;;;10.17;;
15159;SDS011;7680;48.800;9.680;2024-01-07T11:44:12;11.80;;;10.07;;
15159;SDS011;7680;48.800;9.680;2024-01-07T11:49:17;11.67;;;10.57;;
15159;SDS011;7680;48.800;9.680;2024-01-07T11:54:20;11.20;;;10.10;;
15159;SDS011;7680;48.800;9.680;2024-01-07T11:59:24;12.37;;;11.10;;
15159;SDS011;7680;48.800;9.680;2024-01-07T12:04:28;11.73;;;10.57;;
15159;SDS011;7680;48.800;9.680;2024-01-07T12:09:32;11.33;;;10.20;;
15159;SDS011;7680;48.800;9.680;2024-01-07T12:14:35;13.87;;;12.37;;
15159;SDS011;7680;48.800;9.680;2024-01-07T12:19:40;12.10;;;10.90;;
15159;SDS011;7680;48.800;9.680;2024-01-07T12:24:45;11.60;;;10.53;;
15159;SDS011;7680;48.800;9.680;2024-01-07T12:29:53;14.67;;;11.40;;
15159;SDS011;7680;48.800;9.680;2024-01-07T12:34:59;14.30;;;11.80;;
15159;SDS011;7680;48.800;9.680;2024-01-07T12:40:04;11.67;;;10.57;;
15159;SDS011;7680;48.800;9.680;2024-01-07T12:45:10;14.37;;;12.97;;
15159;SDS011;7680;48.800;9.680;2024-01-07T12:50:18;13.20;;;11.90;;
15159;SDS011;7680;48.800;9.680;2024-01-07T12:55:24;16.40;;;13.50;;
15159;SDS011;7680;48.800;9.680;2024-01-07T13:00:28;13.40;;;11.90;;
15159;SDS011;7680;48.800;9.680;2024-01-07T13:05:32;14.10;;;12.53;;
15159;SDS011;7680;48.800;9.680;2024-01-07T13:10:36;16.27;;;14.20;;
15159;SDS011;7680;48.800;9.680;2024-01-07T13:15:39;15.27;;;13.50;;
15159;SDS011;7680;48.800;9.680;2024-01-07T13:20:45;16.10;;;13.63;;
15159;SDS011;7680;48.800;9.680;2024-01-07T13:25:49;17.03;;;14.33;;
15159;SDS011;7680;48.800;9.680;2024-01-07T13:30:52;17.43;;;14.97;;
15159;SDS011;7680;48.800;9.680;2024-01-07T13:35:57;24.40;;;18.10;;
15159;SDS011;7680;48.800;9.680;2024-01-07T13:41:00;17.87;;;14.47;;
15159;SDS011;7680;48.800;9.680;2024-01-07T13:46:04;19.07;;;15.87;;
15159;SDS011;7680;48.800;9.680;2024-01-07T13:51:08;16.90;;;14.13;;
15159;SDS011;7680;48.800;9.680;2024-01-07T13:56:12;18.93;;;15.23;;
15159;SDS011;7680;48.800;9.680;2024-01-07T14:01:15;18.40;;;15.97;;
15159;SDS011;7680;48.800;9.680;2024-01-07T14:06:20;21.07;;;16.47;;
15159;SDS011;7680;48.800;9.680;2024-01-07T14:11:24;16.30;;;14.63;;
15159;SDS011;7680;48.800;9.680;2024-01-07T14:16:29;16.90;;;14.47;;
15159;SDS011;7680;48.800;9.680;2024-01-07T14:21:34;15.40;;;13.80;;
15159;SDS011;7680;48.800;9.680;2024-01-07T14:26:37;16.83;;;14.27;;
15159;SDS011;7680;48.800;9.680;2024-01-07T14:31:40;20.83;;;16.87;;
15159;SDS011;7680;48.800;9.680;2024-01-07T14:36:45;16.93;;;15.13;;
15159;SDS011;7680;48.800;9.680;2024-01-07T14:41:48;15.77;;;14.03;;
15159;SDS011;7680;48.800;9.680;2024-01-07T14:46:51;19.43;;;15.30;;
15159;SDS011;7680;48.800;9.680;2024-01-07T14:51:56;17.40;;;14.43;;
15159;SDS011;7680;48.800;9.680;2024-01-07T14:56:59;15.50;;;13.90;;
15159;SDS011;7680;48.800;9.680;2024-01-07T15:02:02;15.97;;;13.60;;
15159;SDS011;7680;48.800;9.680;2024-01-07T15:07:07;14.40;;;12.90;;
15159;SDS011;7680;48.800;9.680;2024-01-07T15:12:12;16.27;;;12.93;;
15159;SDS011;7680;48.800;9.680;2024-01-07T15:17:15;13.33;;;11.93;;
15159;SDS011;7680;48.800;9.680;2024-01-07T15:22:21;14.80;;;12.33;;
15159;SDS011;7680;48.800;9.680;2024-01-07T15:27:24;13.60;;;12.20;;
15159;SDS011;7680;48.800;9.680;2024-01-07T15:32:27;12.70;;;11.40;;
15159;SDS011;7680;48.800;9.680;2024-01-07T15:37:32;13.50;;;12.10;;
15159;SDS011;7680;48.800;9.680;2024-01-07T15:42:35;12.93;;;11.63;;
15159;SDS011;7680;48.800;9.680;2024-01-07T15:47:40;13.60;;;12.03;;
15159;SDS011;7680;48.800;9.680;2024-01-07T15:52:48;12.63;;;11.33;;
15159;SDS011;7680;48.800;9.680;2024-01-07T15:57:51;12.77;;;10.70;;
15159;SDS011;7680;48.800;9.680;2024-01-07T16:02:54;11.70;;;10.50;;
15159;SDS011;7680;48.800;9.680;2024-01-07T16:08:01;12.87;;;10.73;;
15159;SDS011;7680;48.800;9.680;2024-01-07T16:13:04;12.03;;;10.47;;
15159;SDS011;7680;48.800;9.680;2024-01-07T16:18:08;10.77;;;9.67;;
15159;SDS011;7680;48.800;9.680;2024-01-07T16:23:12;10.70;;;9.60;;
15159;SDS011;7680;48.800;9.680;2024-01-07T16:28:16;12.83;;;10.77;;
15159;SDS011;7680;48.800;9.680;2024-01-07T16:33:19;10.77;;;9.77;;
15159;SDS011;7680;48.800;9.680;2024-01-07T16:38:24;11.50;;;10.03;;
15159;SDS011;7680;48.800;9.680;2024-01-07T16:43:27;10.93;;;9.83;;
15159;SDS011;7680;48.800;9.680;2024-01-07T16:48:32;11.50;;;10.30;;
15159;SDS011;7680;48.800;9.680;2024-01-07T16:53:40;11.93;;;10.73;;
15159;SDS011;7680;48.800;9.680;2024-01-07T16:58:43;10.30;;;9.40;;
15159;SDS011;7680;48.800;9.680;2024-01-07T17:03:46;12.10;;;10.33;;
15159;SDS011;7680;48.800;9.680;2024-01-07T17:08:51;9.97;;;9.07;;
15159;SDS011;7680;48.800;9.680;2024-01-07T17:13:54;11.23;;;10.13;;
15159;SDS011;7680;48.800;9.680;2024-01-07T17:18:57;10.83;;;9.83;;
15159;SDS011;7680;48.800;9.680;2024-01-07T17:24:02;11.17;;;9.60;;
15159;SDS011;7680;48.800;9.680;2024-01-07T17:29:06;10.90;;;9.90;;
15159;SDS011;7680;48.800;9.680;2024-01-07T17:34:09;11.33;;;10.23;;
15159;SDS011;7680;48.800;9.680;2024-01-07T17:39:14;9.83;;;8.93;;
15159;SDS011;7680;48.800;9.680;2024-01-07T17:44:17;11.30;;;9.30;;
15159;SDS011;7680;48.800;9.680;2024-01-07T17:49:20;9.53;;;8.73;;
15159;SDS011;7680;48.800;9.680;2024-01-07T17:54:25;10.50;;;9.57;;
15159;SDS011;7680;48.800;9.680;2024-01-07T17:59:28;11.43;;;10.23;;
15159;SDS011;7680;48.800;9.680;2024-01-07T18:04:35;9.97;;;9.00;;
15159;SDS011;7680;48.800;9.680;2024-01-07T18:09:40;11.07;;;9.57;;
15159;SDS011;7680;48.800;9.680;2024-01-07T18:14:44;11.20;;;10.10;;
15159;SDS011;7680;48.800;9.680;2024-01-07T18:19:47;11.37;;;10.27;;
15159;SDS011;7680;48.800;9.680;2024-01-07T18:24:52;11.37;;;10.30;;
15159;SDS011;7680;48.800;9.680;2024-01-07T18:29:55;11.23;;;10.13;;
15159;SDS011;7680;48.800;9.680;2024-01-07T18:35:00;11.60;;;10.43;;
15159;SDS011;7680;48.800;9.680;2024-01-07T18:40:05;11.60;;;10.47;;
15159;SDS011;7680;48.800;9.680;2024-01-07T18:45:10;11.07;;;9.97;;
15159;SDS011;7680;48.800;9.680;2024-01-07T18:50:14;12.30;;;11.10;;
15159;SDS011;7680;48.800;9.680;2024-01-07T18:55:21;11.57;;;10.37;;
15159;SDS011;7680;48.800;9.680;2024-01-07T19:00:25;12.30;;;11.00;;
15159;SDS011;7680;48.800;9.680;2024-01-07T19:05:28;10.13;;;9.17;;
15159;SDS011;7680;48.800;9.680;2024-01-07T19:10:33;12.37;;;11.13;;
15159;SDS011;7680;48.800;9.680;2024-01-07T19:15:36;11.23;;;10.23;;
15159;SDS011;7680;48.800;9.680;2024-01-07T19:20:41;11.03;;;9.93;;
15159;SDS011;7680;48.800;9.680;2024-01-07T19:25:46;17.20;;;12.17;;
15159;SDS011;7680;48.800;9.680;2024-01-07T19:30:49;10.70;;;9.67;;
15159;SDS011;7680;48.800;9.680;2024-01-07T19:35:54;10.10;;;9.10;;
15159;SDS011;7680;48.800;9.680;2024-01-07T19:40:59;10.37;;;9.37;;
15159;SDS011;7680;48.800;9.680;2024-01-07T19:46:04;11.20;;;9.73;;
15159;SDS011;7680;48.800;9.680;2024-01-07T19:51:07;10.93;;;9.90;;
15159;SDS011;7680;48.800;9.680;2024-01-07T19:56:11;11.13;;;10.13;;
15159;SDS011;7680;48.800;9.680;2024-01-07T20:01:15;10.70;;;9.70;;
15159;SDS011;7680;48.800;9.680;2024-01-07T20:06:18;10.27;;;9.37;;
15159;SDS011;7680;48.800;9.680;2024-01-07T20:11:26;10.27;;;9.27;;
15159;SDS011;7680;48.800;9.680;2024-01-07T20:16:29;10.07;;;9.17;;
15159;SDS011;7680;48.800;9.680;2024-01-07T20:21:33;10.10;;;9.27;;
15159;SDS011;7680;48.800;9.680;2024-01-07T20:26:40;10.30;;;9.40;;
15159;SDS011;7680;48.800;9.680;2024-01-07T20:31:43;10.70;;;8.77;;
15159;SDS011;7680;48.800;9.680;2024-01-07T20:36:49;8.93;;;8.13;;
15159;SDS011;7680;48.800;9.680;2024-01-07T20:41:56;9.63;;;8.83;;
15159;SDS011;7680;48.800;9.680;2024-01-07T20:46:59;10.13;;;9.23;;
15159;SDS011;7680;48.800;9.680;2024-01-07T20:52:02;9.23;;;8.43;;
15159;SDS011;7680;48.800;9.680;2024-01-07T20:57:07;8.77;;;7.90;;
15159;SDS011;7680;48.800;9.680;2024-01-07T21:02:10;8.57;;;7.77;;
15159;SDS011;7680;48.800;9.680;2024-01-07T21:07:14;8.40;;;7.70;;
15159;SDS011;7680;48.800;9.680;2024-01-07T21:12:19;8.07;;;7.37;;
15159;SDS011;7680;48.800;9.680;2024-01-07T21:17:22;8.43;;;7.63;;
15159;SDS011;7680;48.800;9.680;2024-01-07T21:22:25;7.87;;;7.17;;
15159;SDS011;7680;48.800;9.680;2024-01-07T21:27:30;7.70;;;7.00;;
15159;SDS011;7680;48.800;9.680;2024-01-07T21:32:33;8.30;;;7.60;;
15159;SDS011;7680;48.800;9.680;2024-01-07T21:37:36;8.23;;;7.53;;
15159;SDS011;7680;48.800;9.680;2024-01-07T21:42:41;8.67;;;7.77;;
15159;SDS011;7680;48.800;9.680;2024-01-07T21:47:44;8.07;;;7.20;;
15159;SDS011;7680;48.800;9.680;2024-01-07T21:52:53;7.73;;;7.03;;
15159;SDS011;7680;48.800;9.680;2024-01-07T21:57:58;7.97;;;7.23;;
15159;SDS011;7680;48.800;9.680;2024-01-07T22:03:02;7.13;;;6.53;;
15159;SDS011;7680;48.800;9.680;2024-01-07T22:08:07;7.57;;;6.30;;
15159;SDS011;7680;48.800;9.680;2024-01-07T22:13:12;6.83;;;6.23;;
15159;SDS011;7680;48.800;9.680;2024-01-07T22:18:15;7.00;;;6.30;;
15159;SDS011;7680;48.800;9.680;2024-01-07T22:23:18;7.10;;;6.60;;
15159;SDS011;7680;48.800;9.680;2024-01-07T22:28:23;6.40;;;5.90;;
15159;SDS011;7680;48.800;9.680;2024-01-07T22:33:26;6.40;;;5.80;;
15159;SDS011;7680;48.800;9.680;2024-01-07T22:38:29;6.90;;;6.40;;
15159;SDS011;7680;48.800;9.680;2024-01-07T22:43:33;6.50;;;6.00;;
15159;SDS011;7680;48.800;9.680;2024-01-07T22:48:37;6.30;;;5.70;;
15159;SDS011;7680;48.800;9.680;2024-01-07T22:53:40;5.87;;;5.47;;
15159;SDS011;7680;48.800;9.680;2024-01-07T22:58:44;5.47;;;5.07;;
15159;SDS011;7680;48.800;9.680;2024-01-07T23:03:48;5.63;;;5.23;;
15159;SDS011;7680;48.800;9.680;2024-01-07T23:08:52;5.77;;;5.37;;
15159;SDS011;7680;48.800;9.680;2024-01-07T23:13:57;5.87;;;5.47;;
15159;SDS011;7680;48.800;9.680;2024-01-07T23:19:00;5.43;;;4.93;;
15159;SDS011;7680;48.800;9.680;2024-01-07T23:24:06;5.23;;;4.73;;
15159;SDS011;7680;48.800;9.680;2024-01-07T23:29:10;4.90;;;4.60;;
15159;SDS011;7680;48.800;9.680;2024-01-07T23:34:13;5.43;;;5.03;;
15159;SDS011;7680;48.800;9.680;2024-01-07T23:39:17;5.17;;;4.77;;
15159;SDS011;7680;48.800;9.680;2024-01-07T23:44:22;4.87;;;4.47;;
15159;SDS011;7680;48.800;9.680;2024-01-07T23:49:26;5.07;;;4.63;;
15159;SDS011;7680;48.800;9.680;2024-01-07T23:54:29;4.90;;;4.50;;
15159;SDS011;7680;48.800;9.680;2024-01-07T23:59:34;4.93;;;4.53;;
